createdAt,value
2022-11-29T00:01:36.217Z,3.97
2022-11-29T00:04:05.077Z,3.98
2022-11-29T00:06:35.194Z,4.02
2022-11-29T00:09:06.325Z,4.19
2022-11-29T00:11:55.388Z,4.37
2022-11-29T00:14:24.891Z,4.28
2022-11-29T00:16:54.603Z,4.19
2022-11-29T00:19:23.133Z,4.08
2022-11-29T00:21:51.276Z,4.02
2022-11-29T00:24:19.274Z,4.03
2022-11-29T00:26:48.868Z,4.01
2022-11-29T00:29:17.274Z,4.02
2022-11-29T00:31:46.036Z,4.18
2022-11-29T00:34:14.124Z,4.15
2022-11-29T00:36:42.233Z,4.12
2022-11-29T00:39:11.893Z,4.06
2022-11-29T00:41:40.575Z,4.02
2022-11-29T00:44:13.929Z,3.94
2022-11-29T00:46:44.880Z,3.98
2022-11-29T00:49:12.940Z,4.00
2022-11-29T00:51:41.009Z,4.05
2022-11-29T00:54:09.146Z,4.13
2022-11-29T00:56:37.200Z,4.05
2022-11-29T00:59:05.324Z,4.07
2022-11-29T01:01:34.873Z,4.03
2022-11-29T01:04:03.368Z,4.00
2022-11-29T01:06:31.438Z,4.03
2022-11-29T01:08:59.476Z,4.05
2022-11-29T01:11:29.113Z,4.08
2022-11-29T01:13:59.177Z,4.20
2022-11-29T01:16:27.737Z,4.24
2022-11-29T01:18:57.251Z,4.32
2022-11-29T01:21:26.540Z,4.24
2022-11-29T01:23:56.668Z,4.27
2022-11-29T01:26:26.849Z,4.34
2022-11-29T01:28:56.611Z,4.36
2022-11-29T01:31:26.875Z,4.31
2022-11-29T01:33:57.194Z,4.30
2022-11-29T01:36:26.041Z,4.32
2022-11-29T01:38:54.482Z,4.23
2022-11-29T01:41:27.319Z,4.24
2022-11-29T01:43:59.911Z,4.14
2022-11-29T01:46:29.578Z,4.32
2022-11-29T01:49:06.804Z,4.31
2022-11-29T01:51:37.136Z,4.41
2022-11-29T01:54:06.028Z,4.43
2022-11-29T01:56:35.999Z,4.41
2022-11-29T01:59:08.466Z,4.40
2022-11-29T02:01:37.745Z,4.35
2022-11-29T02:04:07.444Z,4.42
2022-11-29T02:06:36.433Z,4.39
2022-11-29T02:09:05.851Z,4.46
2022-11-29T02:12:08.044Z,4.32
2022-11-29T02:14:51.783Z,4.25
2022-11-29T02:17:33.626Z,4.30
2022-11-29T02:20:24.067Z,4.25
2022-11-29T02:22:59.310Z,4.19
2022-11-29T02:25:46.212Z,4.11
2022-11-29T02:28:46.254Z,4.09
2022-11-29T02:31:53.756Z,4.11
2022-11-29T02:34:48.056Z,4.26
2022-11-29T02:37:45.478Z,4.35
2022-11-29T02:40:36.634Z,4.25
2022-11-29T02:43:37.593Z,4.25
2022-11-29T02:46:19.182Z,4.19
2022-11-29T02:49:01.992Z,4.23
2022-11-29T02:51:41.290Z,4.27
2022-11-29T02:54:17.544Z,4.36
2022-11-29T02:56:52.765Z,4.40
2022-11-29T02:59:40.213Z,4.41
2022-11-29T03:02:19.117Z,4.36
2022-11-29T03:04:51.993Z,4.35
2022-11-29T03:07:34.304Z,4.31
2022-11-29T03:10:07.193Z,4.36
2022-11-29T03:12:41.481Z,4.25
2022-11-29T03:15:23.100Z,4.25
2022-11-29T03:18:03.082Z,4.17
2022-11-29T03:20:40.040Z,4.26
2022-11-29T03:23:17.432Z,4.30
2022-11-29T03:25:49.501Z,4.23
2022-11-29T03:28:21.982Z,4.29
2022-11-29T03:30:58.450Z,4.29
2022-11-29T03:33:34.265Z,4.31
2022-11-29T03:36:09.526Z,4.27
2022-11-29T03:38:42.399Z,4.22
2022-11-29T03:41:24.706Z,4.16
2022-11-29T03:43:58.568Z,4.25
2022-11-29T03:46:34.491Z,4.17
2022-11-29T03:49:07.368Z,4.22
2022-11-29T03:51:54.387Z,4.14
2022-11-29T03:54:28.610Z,4.11
2022-11-29T03:56:57.161Z,4.12
2022-11-29T03:59:48.698Z,4.16
2022-11-29T04:02:56.024Z,4.24
2022-11-29T04:05:49.302Z,4.22
2022-11-29T04:08:49.477Z,4.17
2022-11-29T04:11:55.903Z,4.20
2022-11-29T04:14:35.183Z,4.22
2022-11-29T04:17:37.027Z,4.18
2022-11-29T04:20:47.995Z,4.15
2022-11-29T04:23:43.849Z,4.17
2022-11-29T04:26:48.544Z,4.25
2022-11-29T04:29:38.925Z,4.14
2022-11-29T04:32:42.452Z,4.10
2022-11-29T04:35:30.769Z,4.12
2022-11-29T04:38:48.097Z,4.10
2022-11-29T04:41:36.448Z,4.13
2022-11-29T04:44:22.921Z,4.12
2022-11-29T04:47:02.346Z,4.10
2022-11-29T04:49:53.094Z,4.03
2022-11-29T04:52:47.104Z,4.03
2022-11-29T04:55:31.121Z,4.00
2022-11-29T04:58:08.197Z,4.02
2022-11-29T05:00:44.796Z,4.04
2022-11-29T05:03:19.510Z,4.05
2022-11-29T05:05:57.080Z,3.99
2022-11-29T05:08:34.439Z,4.01
2022-11-29T05:11:26.696Z,4.15
2022-11-29T05:14:03.799Z,4.13
2022-11-29T05:16:55.416Z,4.21
2022-11-29T05:19:41.332Z,4.10
2022-11-29T05:22:24.410Z,4.20
2022-11-29T05:25:01.801Z,4.20
2022-11-29T05:27:43.430Z,4.28
2022-11-29T05:30:16.021Z,4.34
2022-11-29T05:32:58.222Z,4.30
2022-11-29T05:35:50.570Z,4.31
2022-11-29T05:38:39.101Z,4.29
2022-11-29T05:41:21.446Z,4.25
2022-11-29T05:44:01.764Z,4.17
2022-11-29T05:46:36.713Z,4.11
2022-11-29T05:49:19.568Z,4.25
2022-11-29T05:51:57.369Z,4.21
2022-11-29T05:54:30.875Z,4.24
2022-11-29T05:57:12.749Z,4.28
2022-11-29T05:59:42.442Z,4.36
2022-11-29T06:02:31.854Z,4.25
2022-11-29T06:05:13.457Z,4.34
2022-11-29T06:07:48.438Z,4.35
2022-11-29T06:10:19.413Z,4.43
2022-11-29T06:12:55.878Z,4.39
2022-11-29T06:15:52.525Z,4.40
2022-11-29T06:18:37.436Z,4.42
2022-11-29T06:21:23.983Z,4.42
2022-11-29T06:24:18.578Z,4.53
2022-11-29T06:27:08.001Z,4.51
2022-11-29T06:29:43.474Z,4.52
2022-11-29T06:32:23.079Z,4.49
2022-11-29T06:34:59.424Z,4.56
2022-11-29T06:37:36.874Z,4.52
2022-11-29T06:40:05.799Z,4.54
2022-11-29T06:42:33.779Z,4.55
2022-11-29T06:45:02.465Z,4.48
2022-11-29T06:47:34.102Z,4.44
2022-11-29T06:50:12.235Z,4.42
2022-11-29T06:52:50.968Z,4.46
2022-11-29T06:55:27.461Z,4.54
2022-11-29T06:58:07.799Z,4.67
2022-11-29T07:00:44.868Z,4.65
2022-11-29T07:03:53.251Z,4.64
2022-11-29T07:06:23.537Z,4.61
2022-11-29T07:08:57.554Z,4.62
2022-11-29T07:11:26.176Z,4.61
2022-11-29T07:13:54.847Z,4.63
2022-11-29T07:16:29.692Z,4.62
2022-11-29T07:19:10.662Z,4.56
2022-11-29T07:21:55.033Z,4.69
2022-11-29T07:24:40.447Z,4.76
2022-11-29T07:27:16.710Z,4.78
2022-11-29T07:29:59.243Z,4.81
2022-11-29T07:32:35.325Z,4.80
2022-11-29T07:35:10.584Z,4.90
2022-11-29T07:37:49.977Z,4.82
2022-11-29T07:40:26.104Z,4.81
2022-11-29T07:43:08.280Z,4.84
2022-11-29T07:45:36.933Z,4.82
2022-11-29T07:48:05.502Z,4.95
2022-11-29T07:50:34.072Z,5.02
2022-11-29T07:53:02.405Z,5.07
2022-11-29T07:55:35.244Z,5.11
2022-11-29T07:58:03.285Z,5.05
2022-11-29T08:00:31.425Z,5.06
2022-11-29T08:02:59.469Z,4.97
2022-11-29T08:05:27.609Z,5.03
2022-11-29T08:07:56.069Z,5.29
2022-11-29T08:10:24.543Z,5.33
2022-11-29T08:12:54.615Z,5.25
2022-11-29T08:15:26.422Z,5.18
2022-11-29T08:17:54.628Z,5.39
2022-11-29T08:20:22.719Z,5.51
2022-11-29T08:22:58.467Z,5.39
2022-11-29T08:25:26.950Z,5.46
2022-11-29T08:27:56.787Z,5.54
2022-11-29T08:30:25.343Z,5.29
2022-11-29T08:32:53.877Z,5.39
2022-11-29T08:35:23.445Z,5.45
2022-11-29T08:37:52.218Z,5.52
2022-11-29T08:40:20.449Z,5.57
2022-11-29T08:42:48.480Z,5.60
2022-11-29T08:45:18.112Z,5.75
2022-11-29T08:47:46.171Z,5.57
2022-11-29T08:50:17.172Z,5.51
2022-11-29T08:53:04.289Z,5.51
2022-11-29T08:55:35.254Z,5.61
2022-11-29T08:58:05.481Z,5.64
2022-11-29T09:00:35.731Z,5.73
2022-11-29T09:03:18.320Z,5.76
2022-11-29T09:05:46.389Z,5.82
2022-11-29T09:08:14.738Z,5.77
2022-11-29T09:10:43.762Z,5.92
2022-11-29T09:13:13.045Z,6.08
2022-11-29T09:15:43.752Z,5.96
2022-11-29T09:18:12.422Z,5.95
2022-11-29T09:20:43.960Z,5.85
2022-11-29T09:23:13.071Z,5.79
2022-11-29T09:25:41.261Z,6.03
2022-11-29T09:28:09.689Z,6.17
2022-11-29T09:30:38.293Z,6.13
2022-11-29T09:33:07.810Z,6.35
2022-11-29T09:35:36.435Z,6.29
2022-11-29T09:38:04.542Z,6.34
2022-11-29T09:40:38.668Z,6.45
2022-11-29T09:43:23.363Z,6.39
2022-11-29T09:45:57.773Z,6.37
2022-11-29T09:49:04.128Z,6.59
2022-11-29T09:51:43.950Z,6.79
2022-11-29T09:54:33.004Z,6.63
2022-11-29T09:57:07.379Z,6.56
2022-11-29T09:59:42.946Z,6.59
2022-11-29T10:02:21.600Z,6.59
2022-11-29T10:04:56.058Z,6.77
2022-11-29T10:07:29.447Z,6.95
2022-11-29T10:10:02.931Z,6.90
2022-11-29T10:12:37.200Z,6.98
2022-11-29T10:15:13.884Z,7.02
2022-11-29T10:17:46.085Z,6.95
2022-11-29T10:20:19.153Z,7.13
2022-11-29T10:22:53.865Z,7.06
2022-11-29T10:25:26.285Z,7.06
2022-11-29T10:27:55.540Z,7.04
2022-11-29T10:30:23.874Z,7.10
2022-11-29T10:32:57.850Z,7.32
2022-11-29T10:35:29.525Z,7.22
2022-11-29T10:40:53.854Z,7.21
2022-11-29T10:43:22.289Z,7.29
2022-11-29T10:45:56.275Z,7.30
2022-11-29T10:48:28.889Z,7.32
2022-11-29T10:50:58.333Z,7.31
2022-11-29T10:53:30.809Z,7.22
2022-11-29T10:56:03.685Z,7.11
2022-11-29T10:58:33.023Z,7.12
2022-11-29T11:01:06.853Z,7.15
2022-11-29T11:03:38.827Z,7.04
2022-11-29T11:06:14.246Z,7.08
2022-11-29T11:08:45.296Z,7.02
2022-11-29T11:11:13.984Z,7.11
2022-11-29T11:13:42.854Z,7.11
2022-11-29T11:16:17.425Z,7.13
2022-11-29T11:18:46.857Z,7.19
2022-11-29T11:21:19.305Z,7.26
2022-11-29T11:23:56.374Z,7.30
2022-11-29T11:26:26.075Z,7.36
2022-11-29T11:28:58.026Z,7.43
2022-11-29T11:31:35.793Z,7.49
2022-11-29T11:34:27.158Z,7.47
2022-11-29T11:37:18.279Z,7.40
2022-11-29T11:39:48.322Z,7.30
2022-11-29T11:42:35.905Z,7.19
2022-11-29T11:45:07.237Z,7.14
2022-11-29T11:47:40.929Z,7.17
2022-11-29T11:50:17.280Z,6.95
2022-11-29T11:52:50.906Z,6.76
2022-11-29T11:55:32.049Z,6.90
2022-11-29T11:58:10.093Z,7.03
2022-11-29T12:03:45.196Z,6.81
2022-11-29T12:06:29.921Z,6.73
2022-11-29T12:09:05.560Z,6.85
2022-11-29T12:11:42.384Z,6.75
2022-11-29T12:14:19.700Z,6.72
2022-11-29T12:16:51.749Z,6.70
2022-11-29T12:19:25.606Z,6.75
2022-11-29T12:22:00.870Z,6.87
2022-11-29T12:24:35.688Z,6.88
2022-11-29T12:27:06.496Z,6.86
2022-11-29T12:29:36.147Z,6.82
2022-11-29T12:32:19.226Z,6.89
2022-11-29T12:34:59.484Z,6.85
2022-11-29T12:37:37.945Z,6.75
2022-11-29T12:40:20.791Z,6.73
2022-11-29T12:42:56.740Z,6.79
2022-11-29T12:45:42.119Z,6.73
2022-11-29T12:48:19.888Z,6.73
2022-11-29T12:50:58.303Z,6.59
2022-11-29T12:53:40.512Z,6.51
2022-11-29T12:56:16.896Z,6.43
2022-11-29T12:59:01.346Z,6.43
2022-11-29T13:01:41.101Z,6.52
2022-11-29T13:04:18.265Z,6.60
2022-11-29T13:06:56.311Z,6.46
2022-11-29T13:09:54.041Z,6.50
2022-11-29T13:12:33.676Z,6.47
2022-11-29T13:15:06.705Z,6.45
2022-11-29T13:17:41.193Z,6.58
2022-11-29T13:20:24.037Z,6.50
2022-11-29T13:22:57.330Z,6.50
2022-11-29T13:25:30.122Z,6.48
2022-11-29T13:28:04.303Z,6.44
2022-11-29T13:30:34.828Z,6.49
2022-11-29T13:33:06.474Z,6.52
2022-11-29T13:35:43.131Z,6.52
2022-11-29T13:38:20.199Z,6.49
2022-11-29T13:40:58.345Z,6.45
2022-11-29T13:43:35.129Z,6.46
2022-11-29T13:46:23.779Z,6.41
2022-11-29T13:48:53.557Z,6.41
2022-11-29T13:51:28.655Z,6.41
2022-11-29T13:53:59.147Z,6.35
2022-11-29T13:56:36.424Z,6.30
2022-11-29T13:59:15.232Z,6.22
2022-11-29T14:01:48.608Z,6.21
2022-11-29T14:04:28.498Z,6.24
2022-11-29T14:07:09.635Z,6.22
2022-11-29T14:09:45.210Z,6.28
2022-11-29T14:12:28.877Z,6.28
2022-11-29T14:15:02.603Z,6.22
2022-11-29T14:17:47.206Z,6.32
2022-11-29T14:20:52.386Z,6.31
2022-11-29T14:23:34.590Z,6.25
2022-11-29T14:26:29.148Z,6.24
2022-11-29T14:28:58.355Z,6.22
2022-11-29T14:31:54.863Z,6.20
2022-11-29T14:34:47.847Z,6.11
2022-11-29T14:37:41.831Z,6.02
2022-11-29T14:40:25.758Z,6.03
2022-11-29T14:42:54.766Z,6.02
2022-11-29T14:45:26.572Z,6.01
2022-11-29T14:47:57.061Z,6.03
2022-11-29T14:50:37.273Z,6.04
2022-11-29T14:53:06.664Z,6.06
2022-11-29T14:55:39.416Z,6.07
2022-11-29T14:58:19.476Z,6.02
2022-11-29T15:01:10.929Z,5.92
2022-11-29T15:03:51.353Z,5.85
2022-11-29T15:06:26.294Z,5.95
2022-11-29T15:09:07.328Z,5.97
2022-11-29T15:11:50.235Z,5.91
2022-11-29T15:14:26.602Z,5.76
2022-11-29T15:17:14.193Z,5.90
2022-11-29T15:20:12.173Z,6.04
2022-11-29T15:22:49.431Z,6.03
2022-11-29T15:25:20.671Z,5.97
2022-11-29T15:27:53.923Z,5.97
2022-11-29T15:30:29.281Z,5.99
2022-11-29T15:32:58.029Z,6.03
2022-11-29T15:35:26.194Z,6.02
2022-11-29T15:37:56.104Z,5.94
2022-11-29T15:40:26.512Z,5.94
2022-11-29T15:43:00.373Z,5.87
2022-11-29T15:45:32.461Z,5.90
2022-11-29T15:48:20.314Z,5.87
2022-11-29T15:50:54.854Z,5.87
2022-11-29T15:53:28.674Z,5.94
2022-11-29T15:55:59.593Z,5.97
2022-11-29T15:58:32.008Z,6.01
2022-11-29T16:01:02.323Z,5.97
2022-11-29T16:03:33.161Z,5.83
2022-11-29T16:06:07.082Z,5.76
2022-11-29T16:08:42.797Z,5.91
2022-11-29T16:11:16.924Z,5.87
2022-11-29T16:14:02.247Z,5.74
2022-11-29T16:16:32.748Z,5.82
2022-11-29T16:19:11.176Z,5.89
2022-11-29T16:21:39.365Z,5.90
2022-11-29T16:24:21.423Z,5.84
2022-11-29T16:26:51.726Z,5.83
2022-11-29T16:29:28.432Z,5.86
2022-11-29T16:32:18.209Z,5.80
2022-11-29T16:34:46.778Z,5.80
2022-11-29T16:37:19.336Z,5.82
2022-11-29T16:39:51.174Z,5.74
2022-11-29T16:42:25.866Z,5.76
2022-11-29T16:45:34.388Z,5.78
2022-11-29T16:48:03.206Z,5.79
2022-11-29T16:50:32.793Z,5.68
2022-11-29T16:53:37.562Z,5.70
2022-11-29T16:56:11.388Z,5.71
2022-11-29T16:59:24.736Z,5.61
2022-11-29T17:01:30.705Z,5.58
2022-11-29T17:04:02.091Z,5.55
2022-11-29T17:06:30.788Z,5.56
2022-11-29T17:09:00.607Z,5.51
2022-11-29T17:11:30.329Z,5.42
2022-11-29T17:13:58.589Z,5.41
2022-11-29T17:16:26.719Z,5.34
2022-11-29T17:18:54.964Z,5.51
2022-11-29T17:21:25.477Z,5.46
2022-11-29T17:23:54.589Z,5.70
2022-11-29T17:26:23.843Z,5.62
2022-11-29T17:28:53.555Z,5.61
2022-11-29T17:31:25.969Z,5.69
2022-11-29T17:33:54.525Z,5.79
2022-11-29T17:36:23.224Z,5.74
2022-11-29T17:38:51.835Z,5.54
2022-11-29T17:41:22.977Z,5.57
2022-11-29T17:43:54.066Z,5.50
2022-11-29T17:46:25.191Z,5.37
2022-11-29T17:48:55.759Z,5.31
2022-11-29T17:51:51.355Z,5.31
2022-11-29T17:54:14.744Z,5.43
2022-11-29T17:56:42.894Z,5.32
2022-11-29T17:59:12.406Z,5.31
2022-11-29T18:01:40.519Z,5.22
2022-11-29T18:04:09.374Z,5.25
2022-11-29T18:06:39.424Z,5.20
2022-11-29T18:09:10.035Z,5.18
2022-11-29T18:11:46.857Z,5.23
2022-11-29T18:14:19.367Z,5.40
2022-11-29T18:16:47.453Z,5.51
2022-11-29T18:19:17.948Z,5.54
2022-11-29T18:21:46.575Z,5.48
2022-11-29T18:24:15.009Z,5.43
2022-11-29T18:26:43.636Z,5.36
2022-11-29T18:29:11.818Z,5.40
2022-11-29T18:31:43.390Z,5.49
2022-11-29T18:34:13.260Z,5.60
2022-11-29T18:36:44.450Z,5.56
2022-11-29T18:39:15.164Z,5.44
2022-11-29T18:41:44.858Z,5.46
2022-11-29T18:44:15.252Z,5.49
2022-11-29T18:46:46.773Z,5.45
2022-11-29T18:49:17.644Z,5.49
2022-11-29T18:51:46.741Z,5.53
2022-11-29T18:54:16.132Z,5.51
2022-11-29T18:56:45.376Z,5.45
2022-11-29T18:59:16.928Z,5.51
2022-11-29T19:01:49.136Z,5.68
2022-11-29T19:04:18.953Z,5.59
2022-11-29T19:22:39.575Z,5.98
2022-11-29T19:25:09.058Z,6.00
2022-11-29T19:27:38.000Z,5.95
2022-11-29T19:30:07.306Z,5.89
2022-11-29T19:32:35.481Z,5.90
2022-11-29T19:35:03.515Z,5.83
2022-11-29T19:37:31.620Z,5.67
2022-11-29T19:40:01.310Z,5.65
2022-11-29T19:42:29.301Z,5.64
2022-11-29T19:47:45.438Z,5.70
2022-11-29T19:50:13.536Z,5.56
2022-11-29T19:52:41.617Z,5.63
2022-11-29T19:55:11.481Z,5.78
2022-11-29T19:57:39.835Z,5.80
2022-11-29T20:00:10.533Z,5.76
2022-11-29T20:02:38.693Z,5.74
2022-11-29T20:05:07.903Z,5.59
2022-11-29T20:07:36.003Z,5.47
2022-11-29T20:10:04.204Z,5.58
2022-11-29T20:12:33.698Z,5.54
2022-11-29T20:15:01.871Z,5.60
2022-11-29T20:17:29.997Z,5.56
2022-11-29T20:19:58.356Z,5.64
2022-11-29T20:22:26.970Z,5.76
2022-11-29T20:24:55.713Z,5.80
2022-11-29T20:27:23.959Z,5.77
2022-11-29T20:29:53.403Z,5.78
2022-11-29T20:32:22.389Z,5.78
2022-11-29T20:34:50.976Z,5.81
2022-11-29T20:37:36.260Z,5.70
2022-11-29T20:40:07.762Z,5.68
2022-11-29T20:42:54.259Z,5.58
2022-11-29T20:45:25.574Z,5.68
2022-11-29T20:47:57.965Z,5.63
2022-11-29T20:50:28.529Z,5.59
2022-11-29T20:53:16.598Z,5.58
2022-11-29T20:55:47.883Z,5.56
2022-11-29T20:58:16.598Z,5.49
2022-11-29T21:00:46.474Z,5.61
2022-11-29T21:03:15.341Z,5.68
2022-11-29T21:05:43.527Z,5.64
2022-11-29T21:08:11.783Z,5.73
2022-11-29T21:10:40.050Z,5.78
2022-11-29T21:13:08.934Z,5.69
2022-11-29T21:15:38.134Z,5.70
2022-11-29T21:18:08.753Z,5.63
2022-11-29T21:20:37.096Z,5.67
2022-11-29T21:23:12.500Z,5.66
2022-11-29T21:25:48.564Z,5.56
2022-11-29T21:28:17.615Z,5.56
2022-11-29T21:30:46.463Z,5.55
2022-11-29T21:33:16.482Z,5.50
2022-11-29T21:35:44.710Z,5.47
2022-11-29T21:38:18.596Z,5.47
2022-11-29T21:40:46.678Z,5.47
2022-11-29T21:43:14.731Z,5.54
2022-11-29T21:45:42.838Z,5.52
2022-11-29T21:48:30.922Z,5.57
2022-11-29T21:51:00.368Z,5.71
2022-11-29T21:53:29.101Z,5.59
2022-11-29T21:55:58.452Z,5.55
2022-11-29T21:58:27.071Z,5.48
2022-11-29T22:00:55.182Z,5.51
2022-11-29T22:03:23.377Z,5.57
2022-11-29T22:05:51.429Z,5.65
2022-11-29T22:08:20.892Z,5.71
2022-11-29T22:10:49.116Z,5.67
2022-11-29T22:13:17.098Z,5.49
2022-11-29T22:15:45.191Z,5.47
2022-11-29T22:18:13.250Z,5.59
2022-11-29T22:20:41.230Z,5.66
2022-11-29T22:23:09.543Z,5.76
2022-11-29T22:25:39.261Z,5.63
2022-11-29T22:28:07.398Z,5.55
2022-11-29T22:30:35.993Z,5.59
2022-11-29T22:33:05.772Z,5.64
2022-11-29T22:35:43.950Z,5.61
2022-11-29T22:38:11.964Z,5.59
2022-11-29T22:40:41.376Z,5.56
2022-11-29T22:43:09.478Z,5.54
2022-11-29T22:45:37.549Z,5.54
2022-11-29T22:48:06.012Z,5.58
2022-11-29T22:50:33.960Z,5.65
2022-11-29T22:53:02.080Z,5.72
2022-11-29T22:55:30.089Z,5.71
2022-11-29T22:57:59.499Z,5.75
2022-11-29T23:00:27.507Z,5.78
2022-11-29T23:02:57.805Z,5.72
2022-11-29T23:05:30.825Z,5.72
2022-11-29T23:08:00.252Z,5.64
2022-11-29T23:10:28.343Z,5.72
2022-11-29T23:12:56.415Z,5.64
2022-11-29T23:15:25.920Z,5.57
2022-11-29T23:17:54.083Z,5.56
2022-11-29T23:20:22.013Z,5.53
2022-11-29T23:22:50.118Z,5.56
2022-11-29T23:25:18.389Z,5.57
2022-11-29T23:27:46.424Z,5.62
2022-11-29T23:30:15.464Z,5.55
2022-11-29T23:32:45.001Z,5.53
2022-11-29T23:35:13.038Z,5.52
2022-11-29T23:37:41.120Z,5.59
2022-11-29T23:40:10.751Z,5.48
2022-11-29T23:42:40.509Z,5.45
2022-11-29T23:45:12.192Z,5.39
2022-11-29T23:47:40.233Z,5.40
2022-11-29T23:50:11.701Z,5.43
2022-11-29T23:52:39.859Z,5.44
2022-11-29T23:55:08.566Z,5.36
2022-11-29T23:57:36.742Z,5.33
